Time;durP1;ratioP1;P1;durP2;ratioP2;P2;SDS_P1;SDS_P2;PMS_P1;PMS_P2;Temp;Humidity;BMP_temperature;BMP_pressure;BME280_temperature;BME280_humidity;BME280_pressure;Samples;Min_cycle;Max_cycle;Signal;HPM_P1;HPM_P2
2023/03/12 00:01:25;;;;;;;6.55;2.40;;;1.50;99.90;;;;;;4964085;28;20072;-47
2023/03/12 00:03:52;;;;;;;9.60;3.35;;;1.50;99.90;;;;;;4965448;28;20050;-47
2023/03/12 00:06:20;;;;;;;6.70;2.40;;;1.50;99.90;;;;;;4962974;28;20613;-45
2023/03/12 00:08:47;;;;;;;6.45;2.65;;;1.40;99.90;;;;;;4967439;28;20576;-43
2023/03/12 00:11:17;;;;;;;6.00;2.75;;;1.40;99.90;;;;;;4967686;28;20110;-42
2023/03/12 00:13:43;;;;;;;6.60;2.78;;;1.40;99.90;;;;;;4966600;28;20516;-44
2023/03/12 00:16:11;;;;;;;6.18;2.58;;;1.40;99.90;;;;;;4963703;28;20149;-42
2023/03/12 00:18:37;;;;;;;6.93;2.85;;;1.30;99.90;;;;;;4965370;28;20394;-45
2023/03/12 00:21:04;;;;;;;6.32;3.17;;;1.30;99.90;;;;;;4965136;28;20131;-46
2023/03/12 00:23:31;;;;;;;6.78;2.83;;;1.30;99.90;;;;;;4963347;28;20153;-45
2023/03/12 00:26:01;;;;;;;5.45;2.60;;;1.30;99.90;;;;;;4967732;28;20444;-44
2023/03/12 00:28:27;;;;;;;9.90;2.58;;;1.30;99.90;;;;;;4965802;28;20054;-46
2023/03/12 00:30:53;;;;;;;6.80;2.45;;;1.30;99.90;;;;;;4966701;28;20069;-41
2023/03/12 00:33:18;;;;;;;7.25;2.40;;;1.30;99.90;;;;;;4967783;28;20055;-45
2023/03/12 00:35:45;;;;;;;5.95;2.20;;;1.30;99.90;;;;;;4965135;28;20433;-43
2023/03/12 00:38:10;;;;;;;7.00;2.17;;;1.30;99.90;;;;;;4965169;28;20046;-42
2023/03/12 00:40:38;;;;;;;4.63;1.92;;;1.30;99.90;;;;;;4966575;28;20070;-45
2023/03/12 00:43:04;;;;;;;6.75;2.17;;;1.30;99.90;;;;;;4964862;28;20273;-42
2023/03/12 00:45:29;;;;;;;7.10;1.90;;;1.30;99.90;;;;;;4966596;28;20055;-44
2023/03/12 00:47:55;;;;;;;4.97;1.80;;;1.30;99.90;;;;;;4969806;28;20519;-47
2023/03/12 00:50:21;;;;;;;6.57;1.88;;;1.30;99.90;;;;;;4965644;28;20039;-46
2023/03/12 00:52:47;;;;;;;3.97;1.40;;;1.30;99.90;;;;;;4965279;28;20043;-46
2023/03/12 00:55:12;;;;;;;5.85;1.77;;;1.40;99.90;;;;;;4963486;28;20059;-45
2023/03/12 00:57:38;;;;;;;4.75;1.92;;;1.40;99.90;;;;;;4966467;28;20496;-43
2023/03/12 01:00:10;;;;;;;3.55;1.58;;;1.40;99.90;;;;;;4965623;28;20052;-45
2023/03/12 01:02:39;;;;;;;3.40;1.27;;;1.40;99.90;;;;;;4959870;28;20407;-44
2023/03/12 01:05:07;;;;;;;6.45;1.58;;;1.40;99.90;;;;;;4961019;28;20484;-46
2023/03/12 01:07:35;;;;;;;5.53;1.55;;;1.40;99.90;;;;;;4963585;28;20047;-45
2023/03/12 01:10:01;;;;;;;5.18;1.08;;;1.40;99.90;;;;;;4960448;28;20532;-46
2023/03/12 01:12:27;;;;;;;3.08;1.30;;;1.40;99.90;;;;;;4961398;28;20622;-43
2023/03/12 01:14:53;;;;;;;3.42;1.20;;;1.50;99.90;;;;;;4960464;28;20043;-45
2023/03/12 01:17:18;;;;;;;4.00;1.95;;;1.50;99.90;;;;;;4961455;28;20055;-45
2023/03/12 01:19:44;;;;;;;6.20;1.60;;;1.50;99.90;;;;;;4970051;28;20086;-44
2023/03/12 01:22:10;;;;;;;3.95;1.60;;;1.50;99.90;;;;;;4961505;28;20072;-46
2023/03/12 01:24:35;;;;;;;3.80;1.55;;;1.50;99.90;;;;;;4962579;28;20502;-47
2023/03/12 01:27:01;;;;;;;5.05;1.10;;;1.50;99.90;;;;;;4963182;28;20552;-45
2023/03/12 01:29:27;;;;;;;3.63;2.00;;;1.50;99.90;;;;;;4962815;28;20049;-44
2023/03/12 01:31:53;;;;;;;3.15;1.17;;;1.50;99.90;;;;;;4963941;28;20054;-45
2023/03/12 01:34:18;;;;;;;6.30;1.30;;;1.50;99.90;;;;;;4964229;28;20061;-45
2023/03/12 01:36:46;;;;;;;3.33;1.30;;;1.50;99.90;;;;;;4958439;28;20058;-44
2023/03/12 01:39:12;;;;;;;3.10;1.40;;;1.50;99.90;;;;;;4959775;28;20100;-44
2023/03/12 01:41:39;;;;;;;5.80;1.58;;;1.50;99.90;;;;;;4963374;28;20397;-46
2023/03/12 01:44:05;;;;;;;10.45;1.65;;;1.50;99.90;;;;;;4960511;28;20046;-45
2023/03/12 01:46:37;;;;;;;5.07;1.60;;;1.50;99.90;;;;;;4960888;28;20062;-44
2023/03/12 01:49:07;;;;;;;3.73;1.70;;;1.60;99.90;;;;;;4960759;28;20164;-46
2023/03/12 01:51:39;;;;;;;3.58;1.83;;;1.60;99.90;;;;;;4964200;28;20499;-45
2023/03/12 01:54:19;;;;;;;4.78;1.52;;;1.60;99.90;;;;;;4962499;28;20058;-42
2023/03/12 01:56:46;;;;;;;5.30;1.73;;;1.50;99.90;;;;;;4963392;28;20058;-55
2023/03/12 01:59:27;;;;;;;3.70;1.50;;;1.50;99.90;;;;;;4960553;28;20042;-44
2023/03/12 02:01:53;;;;;;;4.88;1.70;;;1.60;99.90;;;;;;4958917;28;20062;-45
2023/03/12 02:04:22;;;;;;;9.82;1.90;;;1.60;99.90;;;;;;4962046;28;20057;-45
2023/03/12 02:07:01;;;;;;;6.80;1.85;;;1.60;99.90;;;;;;4963488;28;20141;-45
2023/03/12 02:09:27;;;;;;;4.55;1.90;;;1.60;99.90;;;;;;4962841;28;20146;-45
2023/03/12 02:11:53;;;;;;;4.20;1.65;;;1.60;99.90;;;;;;4962368;28;20133;-49
2023/03/12 02:14:19;;;;;;;5.88;1.50;;;1.60;99.90;;;;;;4963229;28;20196;-45
2023/03/12 02:16:45;;;;;;;5.85;1.70;;;1.70;99.90;;;;;;4960728;28;20504;-45
2023/03/12 02:19:35;;;;;;;3.75;1.27;;;1.70;99.90;;;;;;4960944;28;20113;-43
2023/03/12 02:22:03;;;;;;;3.83;1.48;;;1.70;99.90;;;;;;4963460;28;20062;-44
2023/03/12 02:25:02;;;;;;;4.22;1.73;;;1.70;99.90;;;;;;4961860;28;20436;-47
2023/03/12 02:27:32;;;;;;;4.20;2.13;;;1.70;99.90;;;;;;4964760;28;20053;-43
2023/03/12 02:29:58;;;;;;;5.20;1.90;;;1.70;99.90;;;;;;4965200;28;20076;-46
2023/03/12 02:32:27;;;;;;;5.18;2.03;;;1.70;99.90;;;;;;4962046;28;20460;-47
2023/03/12 02:34:54;;;;;;;4.78;1.73;;;1.70;99.90;;;;;;4967601;28;20061;-46
2023/03/12 02:37:20;;;;;;;5.15;1.60;;;1.70;99.90;;;;;;4962125;28;20733;-45
2023/03/12 02:39:53;;;;;;;6.30;2.00;;;1.70;99.90;;;;;;4963003;28;20055;-44
2023/03/12 02:42:21;;;;;;;3.42;1.40;;;1.70;99.90;;;;;;4962532;28;20055;-48
2023/03/12 02:44:47;;;;;;;6.57;1.90;;;1.70;99.90;;;;;;4964673;28;20085;-46
2023/03/12 02:47:13;;;;;;;6.32;1.98;;;1.70;99.90;;;;;;4958944;28;20075;-47
2023/03/12 02:49:38;;;;;;;3.63;1.60;;;1.70;99.90;;;;;;4961104;28;20129;-45
2023/03/12 02:52:04;;;;;;;3.42;1.38;;;1.70;99.90;;;;;;4964655;28;20046;-46
2023/03/12 02:54:30;;;;;;;5.40;1.98;;;1.70;99.90;;;;;;4959732;28;20058;-46
2023/03/12 02:56:56;;;;;;;4.45;2.05;;;1.70;99.90;;;;;;4961678;28;20070;-44
2023/03/12 02:59:25;;;;;;;4.68;1.63;;;1.70;99.90;;;;;;4959068;28;20051;-47
2023/03/12 03:01:56;;;;;;;4.18;2.03;;;1.70;99.90;;;;;;4967039;28;20054;-45
2023/03/12 03:04:23;;;;;;;5.07;1.98;;;1.70;99.90;;;;;;4965227;28;20072;-44
2023/03/12 03:06:49;;;;;;;4.22;1.70;;;1.70;99.90;;;;;;4963409;28;20129;-43
2023/03/12 03:09:15;;;;;;;4.00;1.70;;;1.70;99.90;;;;;;4964116;28;20050;-45
2023/03/12 03:11:40;;;;;;;4.60;1.83;;;1.70;99.90;;;;;;4961745;28;20137;-44
2023/03/12 03:14:06;;;;;;;6.97;1.90;;;1.70;99.90;;;;;;4962092;28;20129;-47
2023/03/12 03:16:32;;;;;;;5.50;2.05;;;1.70;99.90;;;;;;4973168;28;20500;-47
2023/03/12 03:18:58;;;;;;;5.32;2.10;;;1.70;99.90;;;;;;4964154;28;20053;-45
2023/03/12 03:21:24;;;;;;;5.05;1.80;;;1.60;99.90;;;;;;4961320;28;20063;-45
2023/03/12 03:23:50;;;;;;;4.60;1.92;;;1.60;99.90;;;;;;4961873;28;20077;-43
2023/03/12 03:26:19;;;;;;;5.45;1.73;;;1.60;99.90;;;;;;4962778;28;20194;-47
2023/03/12 03:28:45;;;;;;;5.30;1.75;;;1.60;99.90;;;;;;4964867;28;20070;-47
2023/03/12 03:31:11;;;;;;;2.55;1.17;;;1.60;99.90;;;;;;4965747;28;20074;-44
2023/03/12 03:33:38;;;;;;;3.78;1.60;;;1.60;99.90;;;;;;4963880;28;21109;-45
2023/03/12 03:36:05;;;;;;;4.85;1.90;;;1.60;99.90;;;;;;4965811;28;20535;-47
2023/03/12 03:38:33;;;;;;;5.30;2.22;;;1.60;99.90;;;;;;4965323;28;20058;-42
2023/03/12 03:40:59;;;;;;;4.68;1.80;;;1.60;99.90;;;;;;4960106;28;20431;-43
2023/03/12 03:43:25;;;;;;;5.50;1.92;;;1.60;99.90;;;;;;4967214;28;20539;-45
2023/03/12 03:45:59;;;;;;;7.57;1.60;;;1.60;99.90;;;;;;4962577;28;20505;-46
2023/03/12 03:48:24;;;;;;;4.80;1.95;;;1.60;99.90;;;;;;4963486;28;20055;-43
2023/03/12 03:50:50;;;;;;;4.53;1.85;;;1.60;99.90;;;;;;4966808;28;20058;-45
2023/03/12 03:53:18;;;;;;;5.75;2.08;;;1.60;99.90;;;;;;4961813;28;20787;-42
2023/03/12 03:55:44;;;;;;;3.80;1.92;;;1.60;99.90;;;;;;4963887;28;20512;-44
2023/03/12 03:58:10;;;;;;;3.60;1.73;;;1.60;99.90;;;;;;4966029;28;20050;-48
2023/03/12 04:00:36;;;;;;;4.13;1.90;;;1.60;99.90;;;;;;4963434;28;20054;-45
2023/03/12 04:03:02;;;;;;;4.28;2.20;;;1.60;99.90;;;;;;4965698;28;20122;-44
2023/03/12 04:05:27;;;;;;;6.28;2.47;;;1.60;99.90;;;;;;4967814;28;20054;-44
2023/03/12 04:07:54;;;;;;;7.43;1.83;;;1.70;99.90;;;;;;4967650;28;20053;-44
2023/03/12 04:10:22;;;;;;;4.57;1.83;;;1.70;99.90;;;;;;4965501;28;21075;-46
2023/03/12 04:12:48;;;;;;;4.68;2.20;;;1.70;99.90;;;;;;4965012;28;20055;-45
2023/03/12 04:15:14;;;;;;;3.95;2.03;;;1.70;99.90;;;;;;4960545;28;20057;-44
2023/03/12 04:17:39;;;;;;;4.75;2.05;;;1.70;99.90;;;;;;4964516;28;20125;-45
2023/03/12 04:20:08;;;;;;;6.93;2.65;;;1.70;99.90;;;;;;4968299;28;20198;-47
2023/03/12 04:22:34;;;;;;;4.80;2.30;;;1.70;99.90;;;;;;4965804;28;20137;-44
2023/03/12 04:25:00;;;;;;;6.10;2.25;;;1.70;99.90;;;;;;4966843;28;20515;-43
2023/03/12 04:27:26;;;;;;;7.45;2.60;;;1.70;99.90;;;;;;4967314;28;20054;-47
2023/03/12 04:29:51;;;;;;;5.75;2.72;;;1.70;99.90;;;;;;4965110;28;20489;-46
2023/03/12 04:32:17;;;;;;;6.47;2.50;;;1.60;99.90;;;;;;4959837;28;20051;-48
2023/03/12 04:34:43;;;;;;;5.07;2.42;;;1.70;99.90;;;;;;4966269;28;20081;-43
2023/03/12 04:37:15;;;;;;;6.53;2.05;;;1.70;99.90;;;;;;4967663;28;20063;-44
2023/03/12 04:39:41;;;;;;;6.63;2.50;;;1.70;99.90;;;;;;4961943;28;20051;-45
2023/03/12 04:42:08;;;;;;;7.43;2.22;;;1.70;99.90;;;;;;4965966;28;20078;-45
2023/03/12 04:44:34;;;;;;;10.10;2.65;;;1.70;99.90;;;;;;4963403;28;20078;-43
2023/03/12 04:46:59;;;;;;;6.13;2.30;;;1.70;99.90;;;;;;4964502;28;20707;-48
2023/03/12 04:49:25;;;;;;;6.22;1.95;;;1.70;99.90;;;;;;4962471;28;20051;-45
2023/03/12 04:51:51;;;;;;;4.30;2.00;;;1.80;99.90;;;;;;4965063;28;20082;-44
2023/03/12 04:54:17;;;;;;;6.30;2.65;;;1.80;99.90;;;;;;4961330;28;20082;-45
2023/03/12 04:56:42;;;;;;;6.03;2.38;;;1.80;99.90;;;;;;4961259;28;20655;-42
2023/03/12 04:59:08;;;;;;;4.75;2.00;;;1.80;99.90;;;;;;4964373;28;20105;-43
2023/03/12 05:01:35;;;;;;;6.70;2.08;;;1.80;99.90;;;;;;4962719;28;20080;-44
2023/03/12 05:04:01;;;;;;;4.13;2.28;;;1.80;99.90;;;;;;4963627;28;20110;-46
2023/03/12 05:06:27;;;;;;;5.28;2.38;;;1.80;99.90;;;;;;4963981;28;20057;-46
2023/03/12 05:08:53;;;;;;;7.15;2.38;;;1.90;99.90;;;;;;4965133;28;20412;-45
2023/03/12 05:11:19;;;;;;;5.47;1.90;;;1.90;99.90;;;;;;4961173;28;20090;-46
2023/03/12 05:13:45;;;;;;;7.32;1.98;;;1.90;99.90;;;;;;4963643;28;20059;-42
2023/03/12 05:16:12;;;;;;;4.35;1.95;;;1.90;99.90;;;;;;4962739;28;20582;-46
2023/03/12 05:18:37;;;;;;;4.38;2.30;;;1.90;99.90;;;;;;4961291;28;20068;-47
2023/03/12 05:21:06;;;;;;;5.88;2.15;;;1.80;99.90;;;;;;4963515;28;20435;-46
2023/03/12 05:23:33;;;;;;;5.22;2.00;;;1.80;99.90;;;;;;4962772;28;20061;-45
2023/03/12 05:25:59;;;;;;;4.22;1.70;;;1.90;99.90;;;;;;4965786;28;20050;-46
2023/03/12 05:28:27;;;;;;;4.65;2.20;;;1.90;99.90;;;;;;4963846;28;20634;-44
2023/03/12 05:30:58;;;;;;;11.48;2.40;;;1.80;99.90;;;;;;4959104;28;20095;-45
2023/03/12 05:33:26;;;;;;;9.95;2.60;;;1.90;99.90;;;;;;4958645;28;20070;-36
2023/03/12 05:35:51;;;;;;;5.80;2.00;;;1.90;99.90;;;;;;4957604;28;20050;-37
2023/03/12 05:38:17;;;;;;;17.35;2.67;;;1.90;99.90;;;;;;4962432;28;20046;-35
2023/03/12 05:40:54;;;;;;;5.35;1.90;;;1.90;99.90;;;;;;4961075;28;20046;-35
2023/03/12 05:43:20;;;;;;;7.20;2.15;;;1.90;99.90;;;;;;4961711;28;20353;-46
2023/03/12 05:45:46;;;;;;;5.97;2.50;;;1.90;99.90;;;;;;4961554;28;20054;-44
2023/03/12 05:48:12;;;;;;;21.45;2.88;;;1.90;99.90;;;;;;4962336;28;20055;-47
2023/03/12 05:50:38;;;;;;;5.43;2.20;;;1.90;99.90;;;;;;4974969;28;20054;-43
2023/03/12 05:53:04;;;;;;;5.95;2.33;;;1.90;99.90;;;;;;4960336;28;20066;-42
2023/03/12 05:55:32;;;;;;;6.85;2.25;;;1.90;99.90;;;;;;4966152;28;20047;-46
2023/03/12 05:57:58;;;;;;;8.20;2.38;;;1.90;99.90;;;;;;4959558;28;20092;-42
2023/03/12 06:00:24;;;;;;;4.20;2.40;;;1.90;99.90;;;;;;4962265;28;20050;-45
2023/03/12 06:02:49;;;;;;;8.43;2.60;;;1.90;99.90;;;;;;4960234;28;20054;-45
2023/03/12 06:05:15;;;;;;;8.32;2.53;;;1.90;99.90;;;;;;4961155;28;20051;-47
2023/03/12 06:07:41;;;;;;;10.38;3.25;;;2.00;99.90;;;;;;4965712;28;20105;-46
2023/03/12 06:10:07;;;;;;;8.93;2.70;;;2.00;99.90;;;;;;4960398;28;20136;-46
2023/03/12 06:12:33;;;;;;;5.07;2.67;;;1.90;99.90;;;;;;4965468;28;20077;-45
2023/03/12 06:14:58;;;;;;;6.63;2.35;;;2.00;99.90;;;;;;4961505;28;20051;-46
2023/03/12 06:17:24;;;;;;;5.75;2.58;;;2.00;99.90;;;;;;4957325;28;20069;-45
2023/03/12 06:19:51;;;;;;;5.85;2.67;;;2.00;99.90;;;;;;4969636;28;20511;-47
2023/03/12 06:22:17;;;;;;;5.65;2.65;;;2.00;99.90;;;;;;4960649;28;20051;-45
2023/03/12 06:24:46;;;;;;;7.35;2.55;;;2.00;99.90;;;;;;4967852;28;20138;-45
2023/03/12 06:27:12;;;;;;;5.13;3.13;;;2.00;99.90;;;;;;4977359;28;20058;-44
2023/03/12 06:29:39;;;;;;;7.10;2.80;;;2.10;99.90;;;;;;4963335;28;20182;-45
2023/03/12 06:32:04;;;;;;;4.78;2.42;;;2.10;99.90;;;;;;4961574;28;20053;-46
2023/03/12 06:34:30;;;;;;;8.60;2.92;;;2.10;99.90;;;;;;4966461;28;20055;-46
2023/03/12 06:36:56;;;;;;;6.07;2.70;;;2.10;99.90;;;;;;4966425;28;20512;-44
2023/03/12 06:39:23;;;;;;;6.30;2.80;;;2.00;99.90;;;;;;4959744;28;20142;-45
2023/03/12 06:41:49;;;;;;;6.68;2.85;;;2.00;99.90;;;;;;4961593;28;20085;-45
2023/03/12 06:44:15;;;;;;;4.57;2.45;;;2.10;99.90;;;;;;4961896;28;20074;-46
2023/03/12 06:46:43;;;;;;;6.72;2.83;;;2.00;99.90;;;;;;4962691;28;20098;-44
2023/03/12 06:49:09;;;;;;;12.55;3.03;;;2.00;99.90;;;;;;4959706;28;20054;-47
2023/03/12 06:51:35;;;;;;;7.32;3.00;;;2.00;99.90;;;;;;4961937;28;20607;-46
2023/03/12 06:54:01;;;;;;;7.75;3.20;;;2.00;99.90;;;;;;4958290;28;20055;-42
2023/03/12 06:56:28;;;;;;;8.20;3.17;;;2.00;99.90;;;;;;4963515;28;20063;-42
2023/03/12 06:58:54;;;;;;;3.78;1.80;;;1.90;99.90;;;;;;4960178;28;20051;-46
2023/03/12 07:01:21;;;;;;;5.78;2.95;;;2.00;99.90;;;;;;4956627;28;20046;-46
2023/03/12 07:03:46;;;;;;;5.18;2.33;;;2.00;99.90;;;;;;4967146;28;20055;-43
2023/03/12 07:06:18;;;;;;;5.22;2.45;;;1.90;99.90;;;;;;4966622;28;20064;-45
2023/03/12 07:08:44;;;;;;;4.60;2.45;;;2.00;99.90;;;;;;4966664;28;20051;-44
2023/03/12 07:11:10;;;;;;;7.03;2.80;;;1.90;99.90;;;;;;4964653;28;20461;-43
2023/03/12 07:13:36;;;;;;;9.68;2.72;;;1.90;99.90;;;;;;4968685;28;20500;-46
2023/03/12 07:16:02;;;;;;;6.10;2.13;;;1.90;99.90;;;;;;4965452;28;20055;-43
2023/03/12 07:18:31;;;;;;;7.28;2.65;;;1.90;99.90;;;;;;4966428;28;20324;-46
2023/03/12 07:20:56;;;;;;;5.22;2.55;;;2.00;99.90;;;;;;4967014;28;20515;-46
2023/03/12 07:23:22;;;;;;;5.88;2.45;;;1.90;99.90;;;;;;4963429;28;20039;-46
2023/03/12 07:25:48;;;;;;;4.72;2.25;;;2.00;99.90;;;;;;4968220;28;20081;-45
2023/03/12 07:28:15;;;;;;;6.88;2.50;;;2.00;99.90;;;;;;4967488;28;20094;-49
2023/03/12 07:30:41;;;;;;;8.13;2.88;;;2.00;99.90;;;;;;4961120;28;20069;-47
2023/03/12 07:33:11;;;;;;;6.03;2.45;;;2.00;99.90;;;;;;4959426;28;20050;-46
2023/03/12 07:35:38;;;;;;;6.05;2.80;;;2.00;99.90;;;;;;4963344;28;20047;-45
2023/03/12 07:38:05;;;;;;;8.02;2.92;;;2.00;99.90;;;;;;4963654;28;20051;-45
2023/03/12 07:40:31;;;;;;;7.85;3.03;;;2.00;99.90;;;;;;4963218;28;20267;-47
2023/03/12 07:42:57;;;;;;;5.78;2.70;;;2.00;99.90;;;;;;4967557;28;20042;-46
2023/03/12 07:45:23;;;;;;;5.43;2.40;;;2.00;99.90;;;;;;4961851;28;20051;-44
2023/03/12 07:47:49;;;;;;;10.90;2.67;;;2.00;99.90;;;;;;4966401;28;20054;-44
2023/03/12 07:50:16;;;;;;;5.15;2.97;;;2.00;99.90;;;;;;4963364;28;20050;-46
2023/03/12 07:52:42;;;;;;;6.05;2.70;;;2.00;99.90;;;;;;4963699;28;20063;-47
2023/03/12 07:55:09;;;;;;;6.55;2.65;;;2.10;99.90;;;;;;4964048;28;20054;-46
2023/03/12 07:57:35;;;;;;;7.63;3.38;;;2.10;99.90;;;;;;4964450;28;20062;-48
2023/03/12 08:00:01;;;;;;;5.43;2.70;;;2.10;99.90;;;;;;4962571;28;20578;-47
2023/03/12 08:02:27;;;;;;;8.20;3.03;;;2.10;99.90;;;;;;4964815;28;20063;-45
2023/03/12 08:04:52;;;;;;;7.50;2.10;;;2.10;99.90;;;;;;4964918;28;20408;-45
2023/03/12 08:07:18;;;;;;;5.90;2.58;;;2.20;99.90;;;;;;4961640;28;20054;-47
2023/03/12 08:09:44;;;;;;;6.00;2.58;;;2.20;99.90;;;;;;4966086;28;20054;-48
2023/03/12 08:12:10;;;;;;;7.45;3.05;;;2.20;99.90;;;;;;4961306;28;20070;-46
2023/03/12 08:14:36;;;;;;;5.95;2.50;;;2.20;99.90;;;;;;4964803;28;20105;-47
2023/03/12 08:17:02;;;;;;;5.75;2.38;;;2.20;99.90;;;;;;4965597;28;20058;-45
2023/03/12 08:19:28;;;;;;;5.38;2.72;;;2.30;99.90;;;;;;4963495;28;20057;-49
2023/03/12 08:21:54;;;;;;;6.35;2.80;;;2.30;99.90;;;;;;4964814;28;20085;-47
2023/03/12 08:24:21;;;;;;;7.30;3.08;;;2.30;99.90;;;;;;4967056;28;20835;-46
2023/03/12 08:26:47;;;;;;;5.63;2.72;;;2.30;99.90;;;;;;4966529;28;20050;-49
2023/03/12 08:29:13;;;;;;;7.13;2.58;;;2.30;99.90;;;;;;4960884;28;20129;-43
2023/03/12 08:31:38;;;;;;;6.65;2.55;;;2.30;99.90;;;;;;4964923;28;20061;-42
2023/03/12 08:34:04;;;;;;;5.63;2.88;;;2.20;99.90;;;;;;4964304;28;20043;-47
2023/03/12 08:36:30;;;;;;;9.75;2.58;;;2.30;99.90;;;;;;4963937;28;20521;-48
2023/03/12 08:38:55;;;;;;;6.40;2.60;;;2.30;99.90;;;;;;4963273;28;20074;-48
2023/03/12 08:41:21;;;;;;;6.60;2.90;;;2.30;99.90;;;;;;4962856;28;20054;-44
2023/03/12 08:43:47;;;;;;;6.13;2.63;;;2.30;99.90;;;;;;4966515;28;20057;-49
2023/03/12 08:46:12;;;;;;;5.38;2.53;;;2.40;99.90;;;;;;4956727;28;20102;-46
2023/03/12 08:48:39;;;;;;;6.20;2.83;;;2.50;99.90;;;;;;4962902;28;20492;-45
2023/03/12 08:51:06;;;;;;;8.52;3.15;;;2.50;99.90;;;;;;4963424;28;20515;-48
2023/03/12 08:53:34;;;;;;;6.68;2.67;;;2.50;99.90;;;;;;4962757;28;20051;-47
2023/03/12 08:56:01;;;;;;;6.35;2.60;;;2.50;99.90;;;;;;4962680;28;20524;-43
2023/03/12 08:58:27;;;;;;;5.07;2.35;;;2.60;99.90;;;;;;4965192;28;20547;-44
2023/03/12 09:00:54;;;;;;;9.05;2.92;;;2.60;99.90;;;;;;4962329;28;20062;-46
2023/03/12 09:03:20;;;;;;;6.30;2.95;;;2.60;99.90;;;;;;4962944;28;20056;-48
2023/03/12 09:05:47;;;;;;;7.90;3.00;;;2.60;99.90;;;;;;4965005;28;20073;-43
2023/03/12 09:08:13;;;;;;;5.38;2.08;;;2.70;99.90;;;;;;4962574;28;20046;-45
2023/03/12 09:10:40;;;;;;;6.68;2.80;;;2.70;99.90;;;;;;4962742;28;20062;-46
2023/03/12 09:13:06;;;;;;;5.70;2.88;;;2.70;99.90;;;;;;4961651;28;20058;-43
2023/03/12 09:15:32;;;;;;;6.93;3.38;;;2.70;99.90;;;;;;4964395;28;20065;-47
2023/03/12 09:17:58;;;;;;;8.10;3.05;;;2.70;99.90;;;;;;4964110;28;20510;-44
2023/03/12 09:20:24;;;;;;;6.75;3.25;;;2.80;99.90;;;;;;4963296;28;20051;-43
2023/03/12 09:22:50;;;;;;;10.60;3.88;;;2.80;99.90;;;;;;4966388;28;20045;-43
2023/03/12 09:25:16;;;;;;;7.07;3.70;;;2.80;99.90;;;;;;4962176;28;20051;-45
2023/03/12 09:27:46;;;;;;;6.35;3.05;;;2.80;99.90;;;;;;4961026;28;20054;-48
2023/03/12 09:30:15;;;;;;;5.68;3.40;;;2.80;99.90;;;;;;4962807;28;20069;-51
2023/03/12 09:32:41;;;;;;;9.07;4.00;;;2.80;99.90;;;;;;4965281;28;20051;-48
2023/03/12 09:35:07;;;;;;;8.85;4.28;;;2.80;99.90;;;;;;4965037;28;20058;-40
2023/03/12 09:37:34;;;;;;;6.63;3.58;;;2.80;99.90;;;;;;4962192;28;20081;-46
2023/03/12 09:39:59;;;;;;;9.80;3.80;;;2.80;99.90;;;;;;4962043;28;20058;-48
2023/03/12 09:42:46;;;;;;;6.88;3.95;;;2.80;99.90;;;;;;4955688;28;20512;-46
2023/03/12 09:45:42;;;;;;;9.63;3.97;;;2.90;99.90;;;;;;4955543;28;20043;-47
2023/03/12 09:48:16;;;;;;;8.50;4.18;;;2.90;99.90;;;;;;4958432;28;20057;-40
2023/03/12 09:50:45;;;;;;;9.73;4.25;;;3.00;99.90;;;;;;4953874;28;20047;-44
2023/03/12 09:53:24;;;;;;;8.18;4.25;;;3.00;99.90;;;;;;4959733;28;20539;-46
2023/03/12 09:55:53;;;;;;;5.13;2.60;;;3.10;99.90;;;;;;4958383;28;20043;-46
2023/03/12 09:58:31;;;;;;;12.55;5.28;;;3.10;99.90;;;;;;4955392;28;20053;-46
2023/03/12 10:01:08;;;;;;;8.63;4.40;;;3.10;99.90;;;;;;4954781;28;20055;-46
2023/03/12 10:03:49;;;;;;;9.52;3.97;;;3.20;99.90;;;;;;4961662;28;20102;-45
2023/03/12 10:06:21;;;;;;;9.07;4.22;;;3.20;99.90;;;;;;4958111;28;20051;-46
2023/03/12 10:09:02;;;;;;;9.68;3.55;;;3.30;99.90;;;;;;4964639;28;20078;-48
2023/03/12 10:11:37;;;;;;;7.00;4.10;;;3.40;99.90;;;;;;4958920;28;20114;-47
2023/03/12 10:14:29;;;;;;;7.07;4.38;;;3.50;99.90;;;;;;4958614;28;20054;-47
2023/03/12 10:17:05;;;;;;;8.05;4.18;;;3.50;99.90;;;;;;4963491;28;20051;-48
2023/03/12 10:19:54;;;;;;;10.10;4.45;;;3.60;99.90;;;;;;4960173;28;20061;-44
2023/03/12 10:22:32;;;;;;;9.68;4.75;;;3.70;99.90;;;;;;4958437;28;20162;-45
2023/03/12 10:25:07;;;;;;;9.38;5.00;;;3.70;99.90;;;;;;4960838;28;20134;-45
2023/03/12 10:27:35;;;;;;;8.93;4.60;;;3.70;99.90;;;;;;4958338;28;20490;-41
2023/03/12 10:30:11;;;;;;;12.30;5.63;;;3.70;99.90;;;;;;4962091;28;20582;-46
2023/03/12 10:32:57;;;;;;;9.45;4.05;;;3.80;99.90;;;;;;4975717;28;20058;-45
2023/03/12 10:35:25;;;;;;;9.98;5.25;;;3.90;99.90;;;;;;4954907;28;20051;-45
2023/03/12 10:37:58;;;;;;;5.97;2.88;;;3.90;99.90;;;;;;4964772;28;20134;-46
2023/03/12 10:40:35;;;;;;;11.13;5.38;;;3.90;99.90;;;;;;4966690;28;20058;-45
2023/03/12 10:43:01;;;;;;;13.98;5.35;;;4.00;99.90;;;;;;4964497;28;20559;-44
2023/03/12 10:45:39;;;;;;;9.93;5.32;;;4.00;99.90;;;;;;4966929;28;20045;-49
2023/03/12 10:48:10;;;;;;;11.68;6.47;;;4.00;99.90;;;;;;4964179;28;20047;-48
2023/03/12 10:50:40;;;;;;;11.80;5.63;;;4.10;99.90;;;;;;4962989;28;20047;-46
2023/03/12 10:53:19;;;;;;;9.98;4.72;;;4.10;99.90;;;;;;4966093;28;20058;-46
2023/03/12 10:56:01;;;;;;;10.68;5.63;;;4.20;99.90;;;;;;4964481;28;20313;-48
2023/03/12 10:58:35;;;;;;;10.30;5.57;;;4.30;99.90;;;;;;4966048;28;20055;-46
2023/03/12 11:01:02;;;;;;;14.13;6.20;;;4.30;99.90;;;;;;4961375;28;20050;-48
2023/03/12 11:03:28;;;;;;;12.48;5.72;;;4.50;99.90;;;;;;4964341;28;20042;-49
2023/03/12 11:05:59;;;;;;;12.50;6.30;;;4.50;99.90;;;;;;4963086;28;20050;-46
2023/03/12 11:08:34;;;;;;;14.38;6.32;;;4.60;99.90;;;;;;4965125;28;20512;-46
2023/03/12 11:11:01;;;;;;;13.18;6.35;;;4.60;99.90;;;;;;4966114;28;20061;-48
2023/03/12 11:13:33;;;;;;;17.08;7.28;;;4.80;99.90;;;;;;4963250;28;20078;-48
2023/03/12 11:16:15;;;;;;;15.63;6.60;;;4.90;99.90;;;;;;4963984;28;20063;-45
2023/03/12 11:18:56;;;;;;;17.25;7.60;;;5.00;99.90;;;;;;4966089;28;20300;-44
2023/03/12 11:21:22;;;;;;;16.70;7.30;;;5.20;99.90;;;;;;4961187;28;20583;-50
2023/03/12 11:23:57;;;;;;;18.17;8.32;;;5.30;99.90;;;;;;4965341;28;20047;-48
2023/03/12 11:26:43;;;;;;;18.48;9.13;;;5.50;99.90;;;;;;4959747;28;20105;-46
2023/03/12 11:29:38;;;;;;;18.02;8.50;;;5.60;99.90;;;;;;4959706;28;20055;-46
2023/03/12 11:32:28;;;;;;;19.33;9.18;;;5.70;99.90;;;;;;4961906;28;20428;-43
2023/03/12 11:34:55;;;;;;;21.92;9.15;;;5.80;99.90;;;;;;4961148;28;20055;-47
2023/03/12 11:37:26;;;;;;;21.35;10.10;;;5.90;99.90;;;;;;4958597;28;20066;-51
2023/03/12 11:40:12;;;;;;;18.33;9.50;;;6.00;99.90;;;;;;4966882;28;20137;-46
2023/03/12 11:42:43;;;;;;;23.13;10.10;;;6.10;99.90;;;;;;4960314;28;20070;-44
2023/03/12 11:45:28;;;;;;;18.73;9.73;;;6.10;99.90;;;;;;4962186;28;20062;-48
2023/03/12 11:48:12;;;;;;;23.55;10.25;;;6.20;99.90;;;;;;4963006;28;20142;-46
2023/03/12 11:50:59;;;;;;;23.17;10.50;;;6.20;99.90;;;;;;4967926;28;20065;-47
2023/03/12 11:54:01;;;;;;;22.52;9.77;;;6.20;99.90;;;;;;4964657;28;20081;-45
2023/03/12 11:56:38;;;;;;;22.33;10.52;;;6.30;99.90;;;;;;4965589;28;20133;-44
2023/03/12 11:59:35;;;;;;;27.83;11.05;;;6.30;99.90;;;;;;4964826;28;20529;-47
2023/03/12 12:02:21;;;;;;;25.95;10.18;;;6.40;99.90;;;;;;4961333;28;20054;-43
2023/03/12 12:05:17;;;;;;;26.70;9.18;;;6.50;99.90;;;;;;4961829;28;20054;-46
2023/03/12 12:08:00;;;;;;;20.60;9.93;;;6.50;99.90;;;;;;4961557;28;20089;-47
2023/03/12 12:10:44;;;;;;;19.92;8.70;;;6.60;99.90;;;;;;4961325;28;20047;-45
2023/03/12 12:13:27;;;;;;;17.90;10.15;;;6.60;99.90;;;;;;4958969;28;20468;-46
2023/03/12 12:16:05;;;;;;;23.90;9.73;;;6.70;99.90;;;;;;4962881;28;20508;-46
2023/03/12 12:18:54;;;;;;;23.27;9.70;;;6.70;99.90;;;;;;4957960;28;20178;-45
2023/03/12 12:21:47;;;;;;;25.95;10.18;;;6.80;99.90;;;;;;4957137;28;20067;-46
2023/03/12 12:24:40;;;;;;;23.15;9.27;;;6.90;99.90;;;;;;4961382;28;20084;-44
2023/03/12 12:27:22;;;;;;;23.02;9.55;;;6.90;99.90;;;;;;4969218;28;20082;-44
2023/03/12 12:30:17;;;;;;;25.57;10.30;;;7.00;99.90;;;;;;4959911;28;20061;-45
2023/03/12 12:32:56;;;;;;;23.67;10.88;;;7.00;99.90;;;;;;4940270;28;20058;-47
2023/03/12 12:35:35;;;;;;;23.30;10.00;;;7.10;99.90;;;;;;4956958;28;20510;-44
2023/03/12 12:38:29;;;;;;;26.60;10.38;;;7.10;99.90;;;;;;4949623;28;20485;-47
2023/03/12 12:41:26;;;;;;;31.48;9.48;;;7.10;99.90;;;;;;4957298;28;20515;-46
2023/03/12 12:43:54;;;;;;;31.40;10.55;;;7.20;99.90;;;;;;4954946;28;20097;-45
2023/03/12 12:46:26;;;;;;;26.90;10.73;;;7.30;99.90;;;;;;4962474;28;20075;-49
2023/03/12 12:49:02;;;;;;;27.23;12.23;;;7.30;99.90;;;;;;4956463;28;20046;-46
2023/03/12 12:51:34;;;;;;;27.35;10.63;;;7.40;99.90;;;;;;4963403;28;20077;-45
2023/03/12 12:54:06;;;;;;;21.35;9.63;;;7.40;99.90;;;;;;4961512;28;20050;-48
2023/03/12 12:56:51;;;;;;;23.73;10.18;;;7.50;99.90;;;;;;4960652;28;20062;-45
2023/03/12 12:59:35;;;;;;;28.88;9.23;;;7.50;99.90;;;;;;4954929;28;20063;-46
2023/03/12 13:02:03;;;;;;;26.85;10.55;;;7.60;99.90;;;;;;4964042;28;20484;-48
2023/03/12 13:04:38;;;;;;;23.73;8.95;;;7.60;99.90;;;;;;4960714;28;20066;-48
2023/03/12 13:07:12;;;;;;;25.85;9.25;;;7.70;99.90;;;;;;4962310;28;20137;-47
2023/03/12 13:09:44;;;;;;;27.35;9.77;;;7.70;99.90;;;;;;4961368;28;20125;-52